Time;durP1;ratioP1;P1;durP2;ratioP2;P2;SDS_P1;SDS_P2;PMS_P1;PMS_P2;Temp;Humidity;BMP_temperature;BMP_pressure;BME280_temperature;BME280_humidity;BME280_pressure;Samples;Min_cycle;Max_cycle;Signal;HPM_P1;HPM_P2
2023/06/04 00:00:43;;;;;;;9.47;3.77;;;12.40;99.90;;;;;;5099478;28;20320;-71
2023/06/04 00:03:09;;;;;;;7.93;3.60;;;12.30;99.90;;;;;;5117430;28;20047;-71
2023/06/04 00:05:35;;;;;;;6.37;3.40;;;12.30;99.90;;;;;;5098931;28;20491;-71
2023/06/04 00:08:00;;;;;;;10.57;3.50;;;12.30;99.90;;;;;;5099486;28;20061;-72
2023/06/04 00:10:26;;;;;;;10.23;4.17;;;12.20;99.90;;;;;;5098680;28;20120;-72
2023/06/04 00:12:52;;;;;;;11.80;4.63;;;12.20;99.90;;;;;;5099224;28;20051;-72
2023/06/04 00:15:17;;;;;;;9.83;4.13;;;12.10;99.90;;;;;;5099344;28;20100;-72
2023/06/04 00:17:44;;;;;;;8.63;3.40;;;12.10;99.90;;;;;;5117296;28;20046;-71
2023/06/04 00:20:10;;;;;;;10.03;3.77;;;12.10;99.90;;;;;;5117396;28;20400;-71
2023/06/04 00:22:36;;;;;;;6.93;3.27;;;12.00;99.90;;;;;;5116855;28;20316;-72
2023/06/04 00:25:03;;;;;;;9.10;3.67;;;12.00;99.90;;;;;;5116525;28;20337;-72
2023/06/04 00:27:29;;;;;;;8.13;3.80;;;12.00;99.90;;;;;;5116780;28;20051;-72
2023/06/04 00:29:54;;;;;;;7.97;3.87;;;11.90;99.90;;;;;;5082068;28;20292;-71
2023/06/04 00:32:21;;;;;;;7.07;3.50;;;11.90;99.90;;;;;;5098990;28;20281;-73
2023/06/04 00:35:00;;;;;;;7.73;3.40;;;12.00;99.90;;;;;;5081581;28;20091;-72
2023/06/04 00:37:27;;;;;;;10.00;3.50;;;12.00;99.90;;;;;;5098456;28;20288;-72
2023/06/04 00:39:52;;;;;;;7.27;3.10;;;12.20;99.90;;;;;;5081925;28;20294;-72
2023/06/04 00:42:18;;;;;;;8.90;3.33;;;12.20;99.90;;;;;;5098912;28;20331;-72
2023/06/04 00:44:45;;;;;;;7.77;3.50;;;12.10;99.90;;;;;;5098308;28;20040;-72
2023/06/04 00:47:12;;;;;;;8.07;3.63;;;12.10;99.90;;;;;;5116681;28;20043;-72
2023/06/04 00:49:38;;;;;;;10.73;3.93;;;12.00;99.90;;;;;;5098373;28;20285;-72
2023/06/04 00:52:05;;;;;;;9.47;4.13;;;11.90;99.90;;;;;;5098576;28;20326;-72
2023/06/04 00:54:33;;;;;;;12.00;4.17;;;11.90;99.90;;;;;;5116271;28;20280;-72
2023/06/04 00:56:59;;;;;;;8.63;3.77;;;11.90;99.90;;;;;;5098756;28;20281;-72
2023/06/04 00:59:25;;;;;;;5.77;3.40;;;11.80;99.90;;;;;;5097922;28;20289;-73
2023/06/04 01:02:06;;;;;;;10.67;3.47;;;11.80;99.90;;;;;;5098537;28;20388;-72
2023/06/04 01:04:55;;;;;;;9.20;3.53;;;11.80;99.90;;;;;;5098141;28;20093;-72
2023/06/04 01:07:22;;;;;;;9.40;3.33;;;11.80;99.90;;;;;;5098255;28;20312;-72
2023/06/04 01:09:49;;;;;;;11.30;3.73;;;11.80;99.90;;;;;;5080810;28;20772;-72
2023/06/04 01:12:15;;;;;;;7.83;3.67;;;11.80;99.90;;;;;;5081552;28;20281;-72
2023/06/04 01:14:41;;;;;;;9.57;3.33;;;11.70;99.90;;;;;;5097833;28;20338;-72
2023/06/04 01:17:18;;;;;;;9.23;3.40;;;11.70;99.90;;;;;;5116113;28;20079;-72
2023/06/04 01:20:11;;;;;;;9.57;3.23;;;11.70;99.90;;;;;;5115759;28;20282;-72
2023/06/04 01:22:48;;;;;;;10.83;4.13;;;11.70;99.90;;;;;;5097850;28;20347;-73
2023/06/04 01:25:23;;;;;;;10.00;3.90;;;11.70;99.90;;;;;;5115835;28;20384;-72
2023/06/04 01:27:55;;;;;;;10.63;3.70;;;11.70;99.90;;;;;;5080830;28;20691;-72
2023/06/04 01:30:27;;;;;;;7.70;3.20;;;11.70;99.90;;;;;;5097861;28;20370;-72
2023/06/04 01:32:54;;;;;;;10.63;3.53;;;11.70;99.90;;;;;;5116139;28;20368;-72
2023/06/04 01:35:21;;;;;;;11.50;3.87;;;11.70;99.90;;;;;;5097845;28;20338;-72
2023/06/04 01:37:47;;;;;;;9.73;3.80;;;11.70;99.90;;;;;;5080854;28;20306;-72
2023/06/04 01:40:14;;;;;;;9.73;3.23;;;11.70;99.90;;;;;;5064347;28;20289;-72
2023/06/04 01:42:43;;;;;;;7.80;3.13;;;11.70;99.90;;;;;;5080676;28;20290;-72
2023/06/04 01:45:10;;;;;;;6.67;3.23;;;11.70;99.90;;;;;;5097320;28;20301;-72
2023/06/04 01:47:36;;;;;;;10.70;3.53;;;11.70;99.90;;;;;;5115191;28;20281;-72
2023/06/04 01:50:03;;;;;;;10.63;3.83;;;11.70;99.90;;;;;;5115465;28;20303;-72
2023/06/04 01:52:29;;;;;;;11.07;3.70;;;11.70;99.90;;;;;;5097251;28;20086;-72
2023/06/04 01:54:55;;;;;;;8.13;3.67;;;11.70;99.90;;;;;;5097245;28;20290;-72
2023/06/04 01:57:21;;;;;;;12.23;3.63;;;11.70;99.90;;;;;;5097444;28;20073;-72
2023/06/04 01:59:48;;;;;;;7.17;3.10;;;11.70;99.90;;;;;;5114711;28;20514;-72
2023/06/04 02:02:14;;;;;;;13.77;3.70;;;11.60;99.90;;;;;;5097195;28;20683;-72
2023/06/04 02:04:41;;;;;;;9.90;3.47;;;11.60;99.90;;;;;;5114879;28;20293;-72
2023/06/04 02:07:10;;;;;;;8.70;3.37;;;11.60;99.90;;;;;;5115161;28;20289;-72
2023/06/04 02:09:36;;;;;;;14.37;4.03;;;11.60;99.90;;;;;;5096885;28;20297;-72
2023/06/04 02:12:03;;;;;;;9.17;3.20;;;11.60;99.90;;;;;;5097477;28;20317;-72
2023/06/04 02:14:29;;;;;;;8.47;2.97;;;11.70;99.90;;;;;;5097085;28;20290;-72
2023/06/04 02:16:57;;;;;;;8.23;3.40;;;11.70;99.90;;;;;;5114645;28;20623;-72
2023/06/04 02:19:25;;;;;;;9.37;3.33;;;11.70;99.90;;;;;;5096405;28;20043;-72
2023/06/04 02:21:52;;;;;;;8.87;3.43;;;11.70;99.90;;;;;;5096370;28;20906;-72
2023/06/04 02:24:18;;;;;;;8.10;3.27;;;11.70;99.90;;;;;;5114754;28;20757;-72
2023/06/04 02:26:43;;;;;;;7.57;3.40;;;11.70;99.90;;;;;;5114166;28;20289;-72
2023/06/04 02:29:09;;;;;;;9.00;4.03;;;11.70;99.90;;;;;;5114729;28;20528;-72
2023/06/04 02:31:35;;;;;;;9.50;3.67;;;11.60;99.90;;;;;;5114543;28;20539;-74
2023/06/04 02:34:01;;;;;;;9.93;3.87;;;11.70;99.90;;;;;;5115003;28;20073;-72
2023/06/04 02:36:26;;;;;;;8.53;3.20;;;11.60;99.90;;;;;;5114631;28;20130;-72
2023/06/04 02:38:52;;;;;;;8.87;3.50;;;11.70;99.90;;;;;;5096210;28;20466;-72
2023/06/04 02:41:18;;;;;;;9.83;3.60;;;11.70;99.90;;;;;;5096493;28;20055;-72
2023/06/04 02:43:44;;;;;;;15.10;3.67;;;11.70;99.90;;;;;;5114131;28;20054;-72
2023/06/04 02:46:10;;;;;;;8.73;3.33;;;11.70;99.90;;;;;;5079347;28;20092;-72
2023/06/04 02:48:35;;;;;;;11.50;3.77;;;11.70;99.90;;;;;;5096354;28;20297;-72
2023/06/04 02:51:01;;;;;;;8.17;3.40;;;11.60;99.90;;;;;;5096051;28;20047;-72
2023/06/04 02:53:27;;;;;;;7.63;3.60;;;11.60;99.90;;;;;;5096506;28;20494;-72
2023/06/04 02:55:53;;;;;;;10.03;3.40;;;11.60;99.90;;;;;;5095817;28;20042;-72
2023/06/04 02:58:19;;;;;;;10.60;3.20;;;11.50;99.90;;;;;;5096231;28;20610;-72
2023/06/04 03:00:45;;;;;;;11.83;3.87;;;11.50;99.90;;;;;;5095867;28;20100;-72
2023/06/04 03:03:10;;;;;;;12.67;3.80;;;11.50;99.90;;;;;;5114080;28;20048;-72
2023/06/04 03:05:37;;;;;;;11.97;3.90;;;11.40;99.90;;;;;;5113887;28;20358;-72
2023/06/04 03:08:03;;;;;;;7.10;3.23;;;11.40;99.90;;;;;;5095840;28;20085;-72
2023/06/04 03:10:29;;;;;;;13.17;4.10;;;11.30;99.90;;;;;;5095974;28;20314;-72
2023/06/04 03:12:55;;;;;;;11.90;3.77;;;11.20;99.90;;;;;;5095735;28;20300;-72
2023/06/04 03:15:21;;;;;;;10.03;3.97;;;11.20;99.90;;;;;;5113811;28;20282;-72
2023/06/04 03:17:47;;;;;;;8.00;3.60;;;11.20;99.90;;;;;;5045278;28;20040;-72
2023/06/04 03:20:12;;;;;;;10.30;3.73;;;11.20;99.90;;;;;;5113785;28;20044;-72
2023/06/04 03:22:38;;;;;;;11.47;4.20;;;11.10;99.90;;;;;;5062266;28;20043;-72
2023/06/04 03:25:05;;;;;;;9.97;3.53;;;11.10;99.90;;;;;;5113301;28;20110;-72
2023/06/04 03:27:32;;;;;;;8.33;3.87;;;11.20;99.90;;;;;;5113916;28;20055;-72
2023/06/04 03:29:58;;;;;;;7.03;4.20;;;11.10;99.90;;;;;;5095468;28;20290;-72
2023/06/04 03:32:23;;;;;;;12.53;4.57;;;11.10;99.90;;;;;;5094708;28;20405;-70
2023/06/04 03:34:49;;;;;;;12.70;4.40;;;11.10;99.90;;;;;;5095212;28;20501;-72
2023/06/04 03:37:16;;;;;;;10.53;4.73;;;11.10;99.90;;;;;;5095691;28;20089;-71
2023/06/04 03:39:41;;;;;;;13.53;4.10;;;11.00;99.90;;;;;;5113629;28;20056;-72
2023/06/04 03:42:07;;;;;;;10.73;4.30;;;11.10;99.90;;;;;;5113314;28;20363;-72
2023/06/04 03:44:33;;;;;;;9.27;4.40;;;11.10;99.90;;;;;;5095244;28;20076;-71
2023/06/04 03:46:59;;;;;;;8.60;3.80;;;11.30;99.90;;;;;;5112851;28;20421;-72
2023/06/04 03:49:24;;;;;;;13.20;4.80;;;11.30;99.90;;;;;;5095282;28;20044;-72
2023/06/04 03:51:50;;;;;;;11.63;3.90;;;11.30;99.90;;;;;;5095015;28;20491;-72
2023/06/04 03:54:16;;;;;;;14.10;4.83;;;11.30;99.90;;;;;;5078500;28;20056;-72
2023/06/04 03:56:44;;;;;;;11.60;4.80;;;11.30;99.90;;;;;;5113389;28;20281;-72
2023/06/04 03:59:10;;;;;;;9.60;4.87;;;11.20;99.90;;;;;;5095181;28;20472;-72
2023/06/04 04:01:36;;;;;;;9.07;4.50;;;11.20;99.90;;;;;;5095383;28;20331;-72
2023/06/04 04:04:01;;;;;;;11.00;4.50;;;11.20;99.90;;;;;;5112855;28;20335;-72
2023/06/04 04:06:27;;;;;;;10.53;4.70;;;11.10;99.90;;;;;;5095364;28;20044;-72
2023/06/04 04:08:53;;;;;;;15.00;4.80;;;11.10;99.90;;;;;;5094777;28;20349;-73
2023/06/04 04:11:19;;;;;;;7.97;4.10;;;11.20;99.90;;;;;;5095278;28;20044;-73
2023/06/04 04:13:46;;;;;;;9.77;3.93;;;11.20;99.90;;;;;;5095311;28;20040;-72
2023/06/04 04:16:12;;;;;;;9.20;4.33;;;11.20;99.90;;;;;;5095220;28;20137;-73
2023/06/04 04:18:37;;;;;;;13.57;4.30;;;11.20;99.90;;;;;;5095001;28;20444;-72
2023/06/04 04:21:04;;;;;;;10.93;4.97;;;11.20;99.90;;;;;;5112865;28;20051;-72
2023/06/04 04:23:31;;;;;;;11.13;4.50;;;11.20;99.90;;;;;;5094992;28;20127;-72
2023/06/04 04:25:58;;;;;;;13.00;4.73;;;11.30;99.90;;;;;;5094117;28;20800;-72
2023/06/04 04:28:29;;;;;;;11.10;4.13;;;11.30;99.90;;;;;;5078574;28;20289;-72
2023/06/04 04:31:02;;;;;;;9.13;3.83;;;11.40;99.90;;;;;;5112835;28;20280;-72
2023/06/04 04:33:32;;;;;;;10.97;4.00;;;11.40;99.90;;;;;;5113208;28;20634;-72
2023/06/04 04:35:59;;;;;;;11.93;6.17;;;11.50;99.90;;;;;;5112814;28;20273;-72
2023/06/04 04:38:25;;;;;;;16.73;6.17;;;11.50;99.90;;;;;;5095006;28;20376;-72
2023/06/04 04:40:52;;;;;;;9.03;4.80;;;11.60;99.90;;;;;;5112705;28;20373;-73
2023/06/04 04:43:34;;;;;;;12.20;5.27;;;11.60;99.90;;;;;;5115181;28;20367;-72
2023/06/04 04:46:00;;;;;;;10.27;4.50;;;11.70;99.90;;;;;;5116527;28;20358;-72
2023/06/04 04:48:26;;;;;;;13.63;4.03;;;11.80;99.90;;;;;;5098732;28;20285;-72
2023/06/04 04:50:53;;;;;;;12.47;4.40;;;11.90;99.90;;;;;;5098189;28;20809;-72
2023/06/04 04:53:19;;;;;;;11.07;4.23;;;12.00;99.90;;;;;;5098677;28;20056;-72
2023/06/04 04:55:45;;;;;;;10.17;4.03;;;12.10;99.90;;;;;;5098515;28;20637;-72
2023/06/04 04:58:11;;;;;;;9.53;3.70;;;12.20;99.90;;;;;;5098143;28;20039;-72
2023/06/04 05:00:36;;;;;;;9.13;4.17;;;12.20;99.90;;;;;;5116517;28;20119;-72
2023/06/04 05:03:02;;;;;;;11.57;4.80;;;12.40;99.90;;;;;;5116179;28;20127;-73
2023/06/04 05:05:28;;;;;;;9.37;3.70;;;12.50;99.90;;;;;;5116271;28;20360;-72
2023/06/04 05:07:54;;;;;;;9.17;4.07;;;12.60;99.90;;;;;;5116064;28;20046;-72
2023/06/04 05:10:19;;;;;;;8.63;3.63;;;12.60;99.90;;;;;;5098321;28;20099;-73
2023/06/04 05:12:56;;;;;;;8.20;3.37;;;12.80;99.90;;;;;;5116431;28;20039;-72
2023/06/04 05:15:22;;;;;;;10.57;3.80;;;12.90;99.90;;;;;;5116406;28;20040;-73
2023/06/04 05:17:48;;;;;;;11.80;3.90;;;13.00;99.90;;;;;;5098008;28;20296;-72
2023/06/04 05:20:15;;;;;;;8.47;4.17;;;13.10;99.90;;;;;;5097839;28;20293;-72
2023/06/04 05:22:42;;;;;;;8.83;4.07;;;13.20;99.90;;;;;;5116067;28;20047;-72
2023/06/04 05:25:08;;;;;;;9.87;3.93;;;13.30;99.90;;;;;;5097412;28;20309;-73
2023/06/04 05:27:35;;;;;;;10.10;4.40;;;13.50;99.90;;;;;;5098122;28;20293;-72
2023/06/04 05:30:03;;;;;;;6.87;3.80;;;13.60;99.90;;;;;;5097626;28;20852;-73
2023/06/04 05:32:31;;;;;;;9.87;5.23;;;13.70;99.90;;;;;;5097698;28;20290;-73
2023/06/04 05:34:58;;;;;;;11.70;5.17;;;13.80;99.90;;;;;;5097559;28;20372;-73
2023/06/04 05:37:28;;;;;;;9.90;5.13;;;13.90;99.90;;;;;;5097885;28;20289;-72
2023/06/04 05:39:56;;;;;;;11.53;4.63;;;14.00;99.90;;;;;;5080909;28;20671;-72
2023/06/04 05:42:23;;;;;;;11.93;4.87;;;14.20;99.90;;;;;;5115845;28;20284;-73
2023/06/04 05:44:49;;;;;;;12.47;5.27;;;14.30;99.90;;;;;;5115281;28;20791;-72
2023/06/04 05:47:16;;;;;;;12.13;4.63;;;14.60;99.90;;;;;;5097315;28;20330;-73
2023/06/04 05:49:42;;;;;;;9.60;4.80;;;15.50;99.90;;;;;;5115749;28;20276;-73
2023/06/04 05:52:08;;;;;;;12.00;4.10;;;16.70;99.90;;;;;;5097089;28;20281;-72
2023/06/04 05:54:34;;;;;;;8.77;3.83;;;17.50;99.90;;;;;;5114458;28;20285;-72
2023/06/04 05:56:59;;;;;;;9.17;3.50;;;18.40;99.90;;;;;;5097171;28;20048;-73
2023/06/04 05:59:25;;;;;;;8.67;3.30;;;19.00;99.90;;;;;;5080376;28;20387;-73
2023/06/04 06:01:51;;;;;;;11.47;3.57;;;19.60;99.90;;;;;;5115278;28;20048;-73
2023/06/04 06:04:16;;;;;;;8.83;3.13;;;20.40;99.90;;;;;;5096908;28;20050;-73
2023/06/04 06:06:48;;;;;;;8.80;3.23;;;20.70;99.90;;;;;;5115406;28;20505;-73
2023/06/04 06:09:14;;;;;;;8.43;2.90;;;21.20;99.90;;;;;;5097128;28;20051;-73
2023/06/04 06:11:41;;;;;;;7.83;3.13;;;21.30;99.90;;;;;;5115301;28;20044;-73
2023/06/04 06:14:06;;;;;;;12.50;4.00;;;21.50;99.90;;;;;;5096979;28;20053;-73
2023/06/04 06:16:32;;;;;;;10.40;3.20;;;21.70;99.90;;;;;;5115076;28;20130;-73
2023/06/04 06:18:59;;;;;;;11.20;3.47;;;22.10;99.90;;;;;;5114595;28;20047;-73
2023/06/04 06:21:25;;;;;;;8.50;3.70;;;21.90;98.90;;;;;;5114865;28;20101;-73
2023/06/04 06:23:51;;;;;;;9.23;3.20;;;21.90;99.90;;;;;;5114971;28;20087;-73
2023/06/04 06:26:17;;;;;;;6.50;2.63;;;22.40;98.60;;;;;;5114583;28;20399;-73
2023/06/04 06:28:44;;;;;;;7.43;2.50;;;22.20;97.20;;;;;;5080033;28;20138;-73
2023/06/04 06:31:09;;;;;;;9.17;3.23;;;22.50;95.20;;;;;;5096359;28;20494;-73
2023/06/04 06:33:40;;;;;;;8.70;3.10;;;22.60;89.00;;;;;;5096590;28;20171;-73
2023/06/04 06:36:12;;;;;;;9.13;2.80;;;22.80;94.50;;;;;;5114416;28;20518;-73
2023/06/04 06:38:38;;;;;;;8.30;2.80;;;23.20;92.10;;;;;;5114744;28;20398;-73
2023/06/04 06:41:05;;;;;;;6.83;2.50;;;23.40;88.90;;;;;;5096290;28;20070;-73
2023/06/04 06:43:31;;;;;;;11.37;3.53;;;23.50;78.70;;;;;;5114848;28;20043;-73
2023/06/04 06:45:57;;;;;;;6.30;2.50;;;23.80;83.50;;;;;;5114420;28;20043;-71
2023/06/04 06:48:23;;;;;;;8.73;2.70;;;24.00;76.70;;;;;;5114010;28;20058;-71
2023/06/04 06:50:49;;;;;;;10.00;3.00;;;24.20;73.40;;;;;;5096186;28;20108;-70
2023/06/04 06:53:14;;;;;;;9.00;3.43;;;24.10;69.80;;;;;;5113957;28;20040;-71
2023/06/04 06:55:40;;;;;;;9.53;3.53;;;24.40;69.10;;;;;;5096391;28;20052;-71
2023/06/04 06:58:06;;;;;;;7.77;2.67;;;24.50;68.00;;;;;;5113665;28;20099;-73
2023/06/04 07:00:32;;;;;;;8.93;3.00;;;24.70;64.40;;;;;;5114368;28;20130;-74
2023/06/04 07:03:00;;;;;;;9.80;2.90;;;25.10;63.40;;;;;;5096016;28;20039;-72
2023/06/04 07:05:26;;;;;;;9.07;2.90;;;25.60;58.80;;;;;;5113522;28;20043;-73
2023/06/04 07:07:52;;;;;;;6.90;2.30;;;26.00;57.00;;;;;;5113886;28;20400;-73
2023/06/04 07:10:18;;;;;;;7.40;3.00;;;26.30;54.00;;;;;;5095732;28;20051;-73
2023/06/04 07:12:44;;;;;;;8.77;2.70;;;26.30;54.70;;;;;;5079155;28;20058;-74
2023/06/04 07:15:10;;;;;;;7.43;2.60;;;26.40;53.80;;;;;;5113465;28;20391;-76
2023/06/04 07:17:36;;;;;;;7.40;2.73;;;26.40;52.70;;;;;;5095947;28;20101;-75
2023/06/04 07:20:04;;;;;;;8.03;2.90;;;26.50;52.90;;;;;;5113978;28;20039;-75
2023/06/04 07:22:32;;;;;;;8.13;2.53;;;26.20;51.80;;;;;;5078535;28;20088;-75
2023/06/04 07:24:58;;;;;;;6.53;2.67;;;26.60;52.00;;;;;;5113308;28;20118;-75
2023/06/04 07:27:24;;;;;;;7.67;2.80;;;26.40;51.20;;;;;;5113537;28;20062;-75
2023/06/04 07:29:49;;;;;;;7.40;2.90;;;27.10;50.50;;;;;;5095706;28;20040;-75
2023/06/04 07:32:15;;;;;;;6.63;2.57;;;27.00;49.40;;;;;;5094974;28;20089;-76
2023/06/04 07:34:41;;;;;;;6.63;2.43;;;27.40;48.40;;;;;;5095756;28;20055;-75
2023/06/04 07:37:09;;;;;;;9.17;2.70;;;26.80;47.40;;;;;;5095484;28;20087;-75
2023/06/04 07:39:35;;;;;;;8.13;2.70;;;26.70;47.80;;;;;;5095311;28;20480;-75
2023/06/04 07:42:01;;;;;;;7.93;2.70;;;26.50;47.80;;;;;;5095584;28;20130;-75
2023/06/04 07:44:26;;;;;;;5.57;2.13;;;26.10;47.50;;;;;;5113441;28;20429;-76
2023/06/04 07:46:52;;;;;;;5.77;2.47;;;26.20;48.10;;;;;;5113558;28;20453;-75
2023/06/04 07:49:18;;;;;;;4.20;1.87;;;26.40;47.90;;;;;;5113202;28;20067;-74
2023/06/04 07:51:43;;;;;;;6.70;2.40;;;26.80;48.00;;;;;;5113900;28;20122;-74
2023/06/04 07:54:10;;;;;;;5.50;2.20;;;27.30;46.00;;;;;;5078728;28;20388;-75
2023/06/04 07:56:35;;;;;;;6.53;2.23;;;27.20;46.00;;;;;;5113201;28;20159;-76
2023/06/04 07:59:01;;;;;;;6.33;2.43;;;27.40;45.30;;;;;;5095310;28;20134;-76
2023/06/04 08:01:27;;;;;;;7.83;2.50;;;27.20;45.50;;;;;;5095062;28;20051;-76
2023/06/04 08:03:53;;;;;;;4.60;2.07;;;27.00;45.30;;;;;;5113534;28;20096;-76
2023/06/04 08:06:19;;;;;;;5.03;1.95;;;26.80;44.10;;;;;;5077573;28;20050;-76
2023/06/04 08:08:45;;;;;;;6.00;2.63;;;27.00;45.10;;;;;;5113293;28;20043;-76
2023/06/04 08:11:15;;;;;;;7.82;2.30;;;26.70;44.90;;;;;;5095169;28;20050;-75
2023/06/04 08:13:41;;;;;;;6.20;2.42;;;26.60;45.20;;;;;;5113465;28;20047;-76
2023/06/04 08:16:09;;;;;;;5.43;2.22;;;26.50;45.70;;;;;;5095131;28;20471;-76
2023/06/04 08:18:38;;;;;;;6.85;2.88;;;26.60;45.60;;;;;;5097641;28;20179;-76
2023/06/04 08:21:05;;;;;;;7.00;2.22;;;26.90;45.20;;;;;;5082165;28;20055;-74
2023/06/04 08:23:31;;;;;;;7.10;2.20;;;26.80;44.80;;;;;;5116987;28;20044;-76
2023/06/04 08:25:58;;;;;;;4.90;2.22;;;26.70;44.20;;;;;;5098338;28;20078;-76
2023/06/04 08:28:24;;;;;;;4.68;2.00;;;26.30;44.30;;;;;;5098784;28;20096;-71
2023/06/04 08:30:50;;;;;;;4.43;2.08;;;26.10;44.60;;;;;;5099034;28;20048;-77
2023/06/04 08:33:16;;;;;;;5.85;2.42;;;26.10;44.30;;;;;;5117226;28;20135;-77
2023/06/04 08:35:42;;;;;;;6.22;2.25;;;25.70;45.10;;;;;;5099482;28;20058;-76
2023/06/04 08:38:07;;;;;;;6.35;2.40;;;25.60;45.90;;;;;;5116946;28;20132;-76
2023/06/04 08:40:34;;;;;;;5.07;2.08;;;25.70;46.60;;;;;;5098556;28;20048;-76
2023/06/04 08:43:01;;;;;;;5.68;2.10;;;25.60;46.60;;;;;;5098914;28;20055;-76
2023/06/04 08:45:27;;;;;;;5.25;2.35;;;25.30;46.80;;;;;;5081604;28;20126;-76
2023/06/04 08:47:53;;;;;;;6.65;2.13;;;24.80;47.60;;;;;;5116789;28;20130;-75
2023/06/04 08:50:23;;;;;;;5.75;2.47;;;24.30;47.40;;;;;;5098806;28;20098;-76
2023/06/04 08:52:57;;;;;;;5.30;2.30;;;23.50;47.90;;;;;;5116955;28;20051;-75
2023/06/04 08:55:23;;;;;;;6.53;2.08;;;23.20;48.50;;;;;;5113480;28;20047;-75
2023/06/04 08:57:52;;;;;;;6.90;2.27;;;22.80;48.80;;;;;;5115296;28;20048;-74
2023/06/04 09:00:18;;;;;;;4.47;2.20;;;22.50;49.50;;;;;;5112676;27;20055;-75
2023/06/04 09:02:46;;;;;;;6.10;2.37;;;22.50;50.10;;;;;;5096977;28;20039;-77
2023/06/04 09:05:18;;;;;;;4.17;1.77;;;22.40;50.00;;;;;;5112322;28;20042;-75
2023/06/04 09:07:46;;;;;;;5.63;1.73;;;22.00;50.30;;;;;;5093284;28;20039;-76
2023/06/04 09:10:15;;;;;;;5.97;2.37;;;21.70;50.60;;;;;;5093984;28;20092;-76
2023/06/04 09:12:46;;;;;;;3.80;1.90;;;21.40;51.40;;;;;;5114946;28;20079;-74
2023/06/04 09:15:12;;;;;;;5.57;2.60;;;21.10;52.50;;;;;;5093069;28;20122;-75
2023/06/04 09:17:38;;;;;;;6.27;2.23;;;21.20;53.60;;;;;;5074430;28;20125;-75
2023/06/04 09:20:05;;;;;;;4.93;2.10;;;21.10;53.40;;;;;;5091663;28;20043;-82
2023/06/04 09:22:35;;;;;;;5.37;2.20;;;21.20;53.40;;;;;;5095671;28;20062;-76
2023/06/04 09:25:06;;;;;;;5.67;2.27;;;21.10;53.90;;;;;;5091912;28;20036;-76
2023/06/04 09:27:41;;;;;;;6.00;2.07;;;21.00;55.00;;;;;;5111984;28;20085;-74
2023/06/04 09:30:10;;;;;;;8.03;2.10;;;21.10;56.10;;;;;;5111056;28;20047;-75
2023/06/04 09:32:36;;;;;;;4.83;1.97;;;21.10;56.20;;;;;;5096994;28;20104;-75
2023/06/04 09:35:22;;;;;;;4.93;1.90;;;20.80;55.80;;;;;;5115362;28;20387;-75
2023/06/04 09:37:57;;;;;;;4.97;1.93;;;20.80;57.90;;;;;;5115514;28;20147;-75
2023/06/04 09:40:23;;;;;;;5.27;2.13;;;20.90;58.20;;;;;;5097252;28;20055;-76
2023/06/04 09:42:54;;;;;;;6.60;2.40;;;20.90;58.10;;;;;;5115700;28;20127;-75
2023/06/04 09:45:31;;;;;;;4.53;1.80;;;20.80;57.40;;;;;;5080855;28;20039;-75
2023/06/04 09:48:00;;;;;;;5.63;2.00;;;20.60;55.90;;;;;;5097698;28;20039;-75
2023/06/04 09:50:28;;;;;;;6.90;2.30;;;20.50;57.10;;;;;;5115253;28;20047;-75
2023/06/04 09:52:54;;;;;;;5.50;2.03;;;20.30;58.30;;;;;;5097699;28;20411;-75
2023/06/04 09:55:22;;;;;;;5.90;2.23;;;20.20;58.70;;;;;;5097353;28;20127;-75
2023/06/04 09:57:51;;;;;;;5.07;2.00;;;20.20;58.70;;;;;;5115186;28;20387;-75
2023/06/04 10:00:18;;;;;;;4.97;2.37;;;20.20;58.00;;;;;;5115415;28;20048;-75
2023/06/04 10:02:46;;;;;;;4.90;2.47;;;20.20;58.10;;;;;;5115138;28;20128;-75
2023/06/04 10:05:16;;;;;;;6.20;1.90;;;20.10;58.20;;;;;;5115222;28;20044;-74
2023/06/04 10:07:46;;;;;;;5.83;2.00;;;20.20;56.90;;;;;;5096977;28;20044;-75
2023/06/04 10:10:16;;;;;;;5.67;1.87;;;20.20;56.80;;;;;;5114627;28;20506;-76
2023/06/04 10:12:42;;;;;;;5.47;2.33;;;20.00;59.10;;;;;;5096476;28;20444;-75
2023/06/04 10:15:12;;;;;;;4.30;2.00;;;20.10;61.20;;;;;;5114760;28;20043;-76
2023/06/04 10:17:40;;;;;;;3.73;1.73;;;20.00;63.30;;;;;;5096076;28;20506;-75
2023/06/04 10:20:09;;;;;;;7.47;2.00;;;20.00;62.50;;;;;;5114428;28;20083;-76
2023/06/04 10:22:38;;;;;;;6.63;2.90;;;20.00;63.50;;;;;;5095848;28;20039;-76
2023/06/04 10:25:04;;;;;;;7.07;2.53;;;19.80;66.60;;;;;;5119585;27;20055;-75
2023/06/04 10:27:31;;;;;;;5.93;2.03;;;19.70;69.40;;;;;;5095811;28;20048;-75
2023/06/04 10:29:58;;;;;;;5.00;1.90;;;19.80;73.60;;;;;;5079525;28;20043;-75
2023/06/04 10:32:27;;;;;;;6.17;2.30;;;19.80;75.40;;;;;;5114235;28;20047;-75
2023/06/04 10:34:53;;;;;;;6.83;2.47;;;19.90;76.30;;;;;;5095912;28;20054;-75
2023/06/04 10:37:24;;;;;;;6.40;2.27;;;19.90;75.70;;;;;;5096315;28;20051;-76
2023/06/04 10:39:52;;;;;;;5.77;2.33;;;19.90;77.20;;;;;;5096067;28;20403;-76
2023/06/04 10:42:20;;;;;;;7.20;2.10;;;19.80;78.70;;;;;;5096626;28;20039;-76
2023/06/04 10:44:48;;;;;;;4.93;2.10;;;19.70;79.00;;;;;;5096093;28;20047;-76
2023/06/04 10:47:23;;;;;;;8.03;2.80;;;19.80;79.80;;;;;;5114091;28;20048;-77
2023/06/04 10:49:54;;;;;;;7.60;2.10;;;19.80;80.40;;;;;;5130315;27;20079;-76
2023/06/04 10:52:21;;;;;;;5.57;2.03;;;19.70;79.60;;;;;;5114272;28;20051;-74
2023/06/04 10:54:53;;;;;;;5.57;2.60;;;19.60;82.20;;;;;;5079197;28;20044;-74
2023/06/04 10:57:21;;;;;;;6.27;2.27;;;19.60;83.50;;;;;;5096500;28;20368;-75
2023/06/04 10:59:56;;;;;;;5.53;2.67;;;19.70;82.60;;;;;;5079031;28;20070;-76
2023/06/04 11:02:23;;;;;;;6.03;2.20;;;19.60;82.00;;;;;;5096230;28;20093;-76
2023/06/04 11:05:08;;;;;;;5.87;2.30;;;19.60;82.30;;;;;;5109670;28;20048;-76
2023/06/04 11:07:44;;;;;;;4.77;2.10;;;19.70;82.30;;;;;;5111881;28;20538;-79
2023/06/04 11:10:15;;;;;;;6.27;2.00;;;19.70;84.40;;;;;;5095361;28;20056;-79
2023/06/04 11:12:50;;;;;;;5.07;1.90;;;19.60;81.80;;;;;;5112499;28;20051;-76
2023/06/04 11:15:16;;;;;;;;;;;19.60;83.10;;;;;;5080949;28;20399;-72
2023/06/04 11:17:58;;;;;;;4.20;1.97;;;19.70;81.60;;;;;;5113694;28;20287;-72
2023/06/04 11:20:24;;;;;;;5.10;2.07;;;19.60;82.60;;;;;;5095813;28;20114;-75
2023/06/04 11:22:59;;;;;;;5.20;2.00;;;19.60;83.50;;;;;;5078475;28;20078;-70
2023/06/04 11:25:26;;;;;;;4.37;2.03;;;19.60;83.80;;;;;;5113770;28;20113;-70
2023/06/04 11:27:55;;;;;;;6.37;1.90;;;19.60;83.40;;;;;;5113385;28;20107;-70
2023/06/04 11:30:21;;;;;;;6.73;2.17;;;19.60;84.60;;;;;;5113632;28;20044;-71
2023/06/04 11:32:48;;;;;;;7.13;2.20;;;19.40;84.50;;;;;;5113702;28;20093;-72
2023/06/04 11:35:14;;;;;;;5.80;2.17;;;19.40;84.80;;;;;;5095654;28;20068;-75
2023/06/04 11:37:40;;;;;;;6.70;2.13;;;19.50;85.20;;;;;;5095049;28;20398;-70
2023/06/04 11:40:19;;;;;;;5.60;1.93;;;19.60;86.00;;;;;;5113525;28;20043;-72
2023/06/04 11:42:49;;;;;;;6.63;2.03;;;19.60;82.10;;;;;;5112999;28;20047;-74
2023/06/04 11:45:20;;;;;;;5.00;1.80;;;19.60;83.10;;;;;;5095322;28;20073;-73
2023/06/04 11:47:56;;;;;;;6.57;2.23;;;19.50;81.00;;;;;;5113367;28;20079;-73
2023/06/04 11:50:26;;;;;;;5.10;2.13;;;19.40;81.40;;;;;;5113753;28;20122;-73
2023/06/04 11:52:53;;;;;;;3.63;1.60;;;19.30;80.10;;;;;;5094301;28;20052;-73
2023/06/04 11:55:21;;;;;;;4.73;1.90;;;19.30;82.10;;;;;;5113384;28;20040;-73
2023/06/04 11:57:48;;;;;;;6.27;2.30;;;19.20;83.50;;;;;;5094858;28;20035;-73
2023/06/04 12:00:17;;;;;;;5.33;1.80;;;19.20;82.80;;;;;;5095626;28;20057;-73
2023/06/04 12:02:55;;;;;;;6.67;2.40;;;19.20;85.30;;;;;;5113079;28;20392;-73
2023/06/04 12:05:23;;;;;;;5.57;1.80;;;19.20;86.20;;;;;;5113533;28;20100;-74
2023/06/04 12:07:50;;;;;;;6.47;1.90;;;19.20;86.50;;;;;;5112995;28;20077;-74
2023/06/04 12:10:20;;;;;;;4.33;1.83;;;19.20;86.60;;;;;;5095078;28;20051;-74
2023/06/04 12:12:46;;;;;;;5.47;2.27;;;19.20;86.50;;;;;;5113295;28;20039;-73
2023/06/04 12:15:19;;;;;;;10.73;1.83;;;19.20;87.30;;;;;;5095427;28;20044;-74
2023/06/04 12:17:54;;;;;;;6.93;2.17;;;19.20;88.70;;;;;;5095919;28;20044;-74
2023/06/04 12:20:46;;;;;;;6.10;2.17;;;19.20;90.10;;;;;;5113322;28;20131;-74
2023/06/04 12:23:20;;;;;;;7.20;2.40;;;19.30;88.40;;;;;;5108411;28;20068;-74
2023/06/04 12:25:51;;;;;;;5.13;2.15;;;19.20;87.10;;;;;;5112572;28;20608;-73
2023/06/04 12:28:19;;;;;;;5.63;2.10;;;19.20;87.70;;;;;;5095116;28;20055;-75
2023/06/04 12:30:45;;;;;;;6.00;1.80;;;19.20;88.60;;;;;;5076929;28;20134;-74
2023/06/04 12:33:12;;;;;;;6.93;2.13;;;19.30;90.00;;;;;;5113344;28;20158;-75
2023/06/04 12:35:37;;;;;;;5.00;1.83;;;19.20;89.30;;;;;;5113079;28;20123;-75
2023/06/04 12:38:09;;;;;;;6.13;2.33;;;19.30;90.60;;;;;;5112717;28;20539;-75
2023/06/04 12:40:34;;;;;;;5.37;2.50;;;19.20;88.40;;;;;;5095044;28;20059;-75
2023/06/04 12:43:00;;;;;;;6.17;2.10;;;19.20;90.10;;;;;;5112660;28;20036;-75
2023/06/04 12:45:26;;;;;;;5.20;2.07;;;19.20;91.00;;;;;;5094761;28;20035;-75
2023/06/04 12:47:51;;;;;;;5.57;1.70;;;19.20;91.70;;;;;;5094768;28;20185;-76